Time;durP1;ratioP1;P1;durP2;ratioP2;P2;SDS_P1;SDS_P2;PMS_P1;PMS_P2;Temp;Humidity;BMP_temperature;BMP_pressure;BME280_temperature;BME280_humidity;BME280_pressure;Samples;Min_cycle;Max_cycle;Signal;HPM_P1;HPM_P2
2023/06/11 00:02:22;;;;;;;10.33;6.07;;;;;;;;;;4991429;28;20726;-73
2023/06/11 00:04:49;;;;;;;8.33;5.77;;;;;;;;;;4972495;28;20023;-73
2023/06/11 00:07:14;;;;;;;11.25;6.30;;;;;;;;;;4973267;28;20625;-73
2023/06/11 00:09:39;;;;;;;14.17;6.27;;;;;;;;;;4986469;28;20115;-73
2023/06/11 00:12:05;;;;;;;7.43;5.33;;;;;;;;;;4987899;28;20027;-73
2023/06/11 00:14:30;;;;;;;8.00;5.68;;;;;;;;;;4972209;28;20258;-73
2023/06/11 00:16:56;;;;;;;11.00;6.03;;;;;;;;;;4972703;28;20033;-73
2023/06/11 00:19:22;;;;;;;11.20;5.85;;;;;;;;;;4991965;28;20297;-73
2023/06/11 00:21:48;;;;;;;9.02;5.88;;;;;;;;;;4992178;28;20022;-73
2023/06/11 00:24:14;;;;;;;10.40;6.10;;;;;;;;;;4999565;28;20013;-73
2023/06/11 00:26:40;;;;;;;7.50;5.80;;;;;;;;;;4972555;28;20501;-73
2023/06/11 00:29:05;;;;;;;17.30;6.50;;;;;;;;;;4972126;28;20478;-73
2023/06/11 00:31:30;;;;;;;10.88;6.07;;;;;;;;;;4984737;28;20032;-73
2023/06/11 00:33:56;;;;;;;9.90;5.63;;;;;;;;;;4996833;28;20045;-73
2023/06/11 00:36:21;;;;;;;9.33;5.70;;;;;;;;;;4980261;28;20033;-73
2023/06/11 00:38:48;;;;;;;10.07;5.67;;;;;;;;;;4988712;28;20050;-73
2023/06/11 00:41:13;;;;;;;9.27;5.50;;;;;;;;;;4991394;28;20281;-73
2023/06/11 00:43:38;;;;;;;11.73;6.00;;;;;;;;;;4991768;28;20045;-73
2023/06/11 00:46:10;;;;;;;12.60;5.85;;;;;;;;;;4991753;28;20507;-73
2023/06/11 00:48:36;;;;;;;8.13;5.40;;;;;;;;;;4991745;28;20027;-73
2023/06/11 00:51:01;;;;;;;11.93;5.82;;;;;;;;;;4990636;28;20022;-73
2023/06/11 00:53:26;;;;;;;10.93;6.63;;;;;;;;;;4986982;28;20065;-73
2023/06/11 00:55:51;;;;;;;10.93;6.10;;;;;;;;;;4972178;28;20067;-73
2023/06/11 00:58:17;;;;;;;9.13;6.33;;;;;;;;;;4972012;28;20037;-73
2023/06/11 01:00:52;;;;;;;9.07;6.10;;;;;;;;;;4985554;28;20497;-73
2023/06/11 01:03:19;;;;;;;6.15;4.72;;;;;;;;;;4991147;28;20030;-73
2023/06/11 01:05:49;;;;;;;9.93;5.82;;;;;;;;;;4987116;28;20023;-73
2023/06/11 01:08:16;;;;;;;7.97;5.15;;;;;;;;;;4990587;28;20405;-73
2023/06/11 01:10:42;;;;;;;11.70;5.57;;;;;;;;;;4985444;28;20583;-73
2023/06/11 01:13:07;;;;;;;10.57;6.10;;;;;;;;;;4984988;28;20224;-73
2023/06/11 01:15:32;;;;;;;10.35;6.00;;;;;;;;;;4993231;28;20019;-73
2023/06/11 01:18:08;;;;;;;8.83;6.23;;;;;;;;;;4985002;28;20109;-73
2023/06/11 01:20:36;;;;;;;8.52;6.00;;;;;;;;;;4985003;28;20023;-73
2023/06/11 01:23:04;;;;;;;14.70;6.22;;;;;;;;;;4971512;28;20029;-73
2023/06/11 01:25:50;;;;;;;12.07;5.28;;;;;;;;;;4983853;28;20015;-73
2023/06/11 01:28:17;;;;;;;8.25;5.55;;;;;;;;;;4990601;28;20481;-73
2023/06/11 01:30:47;;;;;;;11.20;6.22;;;;;;;;;;4992627;28;20027;-73
2023/06/11 01:33:13;;;;;;;6.07;4.78;;;;;;;;;;4990070;28;20026;-73
2023/06/11 01:35:39;;;;;;;9.45;6.03;;;;;;;;;;4981635;28;20026;-73
2023/06/11 01:38:08;;;;;;;8.10;5.75;;;;;;;;;;4987809;28;20026;-73
2023/06/11 01:40:33;;;;;;;10.43;5.70;;;;;;;;;;4991318;28;20014;-73
2023/06/11 01:42:58;;;;;;;8.20;5.60;;;;;;;;;;4985447;28;20022;-73
2023/06/11 01:45:24;;;;;;;11.93;5.68;;;;;;;;;;4984882;28;20262;-73
2023/06/11 01:47:50;;;;;;;8.30;5.15;;;;;;;;;;4971338;28;20025;-73
2023/06/11 01:50:16;;;;;;;8.15;5.53;;;;;;;;;;4971345;28;20027;-73
2023/06/11 01:52:41;;;;;;;10.77;5.20;;;;;;;;;;4971190;28;20031;-73
2023/06/11 01:55:07;;;;;;;11.97;6.47;;;;;;;;;;4971585;28;20019;-73
2023/06/11 01:57:32;;;;;;;10.18;5.95;;;;;;;;;;4980976;28;20299;-73
2023/06/11 01:59:58;;;;;;;12.32;5.85;;;;;;;;;;4981978;28;20027;-73
2023/06/11 02:02:23;;;;;;;9.48;5.55;;;;;;;;;;4994089;28;20504;-73
2023/06/11 02:04:48;;;;;;;8.87;5.77;;;;;;;;;;4970363;28;20031;-73
2023/06/11 02:07:13;;;;;;;7.43;5.20;;;;;;;;;;4971026;28;20312;-73
2023/06/11 02:09:38;;;;;;;8.40;5.83;;;;;;;;;;4982729;28;20284;-73
2023/06/11 02:12:04;;;;;;;12.02;5.55;;;;;;;;;;4992341;28;20029;-73
2023/06/11 02:14:29;;;;;;;14.90;5.72;;;;;;;;;;4993248;28;20026;-73
2023/06/11 02:16:54;;;;;;;13.88;5.78;;;;;;;;;;4990682;28;20023;-74
2023/06/11 02:19:19;;;;;;;7.68;5.43;;;;;;;;;;4990445;28;20026;-73
2023/06/11 02:21:46;;;;;;;15.85;6.10;;;;;;;;;;4991429;28;20133;-73
2023/06/11 02:24:11;;;;;;;7.53;5.43;;;;;;;;;;4988919;28;20446;-73
2023/06/11 02:26:36;;;;;;;11.57;5.17;;;;;;;;;;4988969;28;20022;-73
2023/06/11 02:29:01;;;;;;;8.73;5.47;;;;;;;;;;4997898;28;20434;-73
2023/06/11 02:31:26;;;;;;;6.80;4.90;;;;;;;;;;4991029;28;20050;-73
2023/06/11 02:33:52;;;;;;;7.53;5.23;;;;;;;;;;4989338;28;20015;-73
2023/06/11 02:36:17;;;;;;;7.23;5.53;;;;;;;;;;4993856;28;20442;-73
2023/06/11 02:38:42;;;;;;;12.50;5.50;;;;;;;;;;4985073;28;20262;-73
2023/06/11 02:41:07;;;;;;;9.77;5.97;;;;;;;;;;4986081;28;20035;-73
2023/06/11 02:43:32;;;;;;;9.87;5.73;;;;;;;;;;4993828;28;20032;-73
2023/06/11 02:45:57;;;;;;;13.97;6.60;;;;;;;;;;4993926;28;20026;-73
2023/06/11 02:48:22;;;;;;;13.93;6.07;;;;;;;;;;4993713;28;20061;-73
2023/06/11 02:50:48;;;;;;;8.30;6.03;;;;;;;;;;4994256;28;20026;-73
2023/06/11 02:53:13;;;;;;;7.20;4.90;;;;;;;;;;4983646;28;20277;-73
2023/06/11 02:55:38;;;;;;;13.67;6.27;;;;;;;;;;4984906;28;20041;-73
2023/06/11 02:58:03;;;;;;;14.40;5.78;;;;;;;;;;4992421;28;20026;-73
2023/06/11 03:00:28;;;;;;;12.90;6.20;;;;;;;;;;4990962;28;20027;-73
2023/06/11 03:02:53;;;;;;;8.63;5.70;;;;;;;;;;4993638;28;20277;-73
2023/06/11 03:05:19;;;;;;;10.47;5.40;;;;;;;;;;4994875;28;20106;-73
2023/06/11 03:07:44;;;;;;;7.43;4.88;;;;;;;;;;4989135;28;20018;-73
2023/06/11 03:10:09;;;;;;;9.25;5.25;;;;;;;;;;4977516;28;20046;-73
2023/06/11 03:12:35;;;;;;;10.73;5.95;;;;;;;;;;4990055;28;20022;-73
2023/06/11 03:15:00;;;;;;;8.90;5.43;;;;;;;;;;4989996;28;20426;-73
2023/06/11 03:17:25;;;;;;;11.93;5.67;;;;;;;;;;4973953;28;20433;-73
2023/06/11 03:19:50;;;;;;;11.90;5.13;;;;;;;;;;4974152;28;20286;-73
2023/06/11 03:22:15;;;;;;;8.00;5.60;;;;;;;;;;4986262;28;20021;-73
2023/06/11 03:24:40;;;;;;;11.17;5.77;;;;;;;;;;4982178;28;20061;-73
2023/06/11 03:27:06;;;;;;;9.27;5.87;;;;;;;;;;4994163;28;20017;-73
2023/06/11 03:29:31;;;;;;;13.07;5.43;;;;;;;;;;4983332;28;20037;-73
2023/06/11 03:31:56;;;;;;;11.53;6.17;;;;;;;;;;4973440;28;20035;-73
2023/06/11 03:34:22;;;;;;;10.30;6.03;;;;;;;;;;4978499;28;20022;-72
2023/06/11 03:36:47;;;;;;;10.20;6.17;;;;;;;;;;4986532;28;20027;-73
2023/06/11 03:39:12;;;;;;;15.13;6.33;;;;;;;;;;4972542;28;20277;-73
2023/06/11 03:41:37;;;;;;;10.90;5.68;;;;;;;;;;4989140;28;20026;-73
2023/06/11 03:44:02;;;;;;;15.03;5.80;;;;;;;;;;4988406;28;20159;-73
2023/06/11 03:46:27;;;;;;;11.05;6.32;;;;;;;;;;4973371;28;20258;-73
2023/06/11 03:48:53;;;;;;;8.47;5.20;;;;;;;;;;4978801;28;20053;-73
2023/06/11 03:51:18;;;;;;;14.85;5.97;;;;;;;;;;4987049;28;20029;-73
2023/06/11 03:53:43;;;;;;;8.57;5.65;;;;;;;;;;4973312;28;20045;-73
2023/06/11 03:56:08;;;;;;;7.90;5.57;;;;;;;;;;4991898;28;20021;-73
2023/06/11 03:58:34;;;;;;;9.77;6.10;;;;;;;;;;4992530;28;20451;-73
2023/06/11 04:00:59;;;;;;;11.82;6.07;;;;;;;;;;4990606;28;20469;-73
2023/06/11 04:03:24;;;;;;;12.53;5.73;;;;;;;;;;4972998;28;20037;-73
2023/06/11 04:05:50;;;;;;;12.67;6.33;;;;;;;;;;4973022;28;20262;-73
2023/06/11 04:08:15;;;;;;;7.72;5.40;;;;;;;;;;4990014;28;20291;-73
2023/06/11 04:10:40;;;;;;;9.80;6.03;;;;;;;;;;4979809;28;20029;-73
2023/06/11 04:13:05;;;;;;;8.80;6.00;;;;;;;;;;4987753;28;20683;-73
2023/06/11 04:15:31;;;;;;;9.67;5.87;;;;;;;;;;4994800;28;21055;-73
2023/06/11 04:17:56;;;;;;;10.95;5.78;;;;;;;;;;4987497;28;20105;-73
2023/06/11 04:20:21;;;;;;;8.77;5.70;;;;;;;;;;4982800;28;20540;-73
2023/06/11 04:22:46;;;;;;;9.23;6.23;;;;;;;;;;4973758;28;20266;-73
2023/06/11 04:25:12;;;;;;;10.70;5.83;;;;;;;;;;4986365;28;20273;-73
2023/06/11 04:27:38;;;;;;;8.57;5.77;;;;;;;;;;4980720;28;20266;-73
2023/06/11 04:30:04;;;;;;;8.25;5.32;;;;;;;;;;4984221;28;20270;-72
2023/06/11 04:32:34;;;;;;;9.32;5.78;;;;;;;;;;4981391;28;20370;-72
2023/06/11 04:35:01;;;;;;;8.75;6.35;;;;;;;;;;4988994;28;20034;-72
2023/06/11 04:37:29;;;;;;;14.85;6.40;;;;;;;;;;4991945;28;20049;-72
2023/06/11 04:39:56;;;;;;;8.80;6.20;;;;;;;;;;4993690;28;20014;-73
2023/06/11 04:42:24;;;;;;;12.82;5.88;;;;;;;;;;4991376;28;20018;-72
2023/06/11 04:44:49;;;;;;;10.85;6.25;;;;;;;;;;4984643;28;20010;-72
2023/06/11 04:47:14;;;;;;;11.50;6.23;;;;;;;;;;4974722;28;20025;-73
2023/06/11 04:49:40;;;;;;;11.93;5.43;;;;;;;;;;4954976;28;20082;-73
2023/06/11 04:52:05;;;;;;;8.40;5.03;;;;;;;;;;4989836;28;20349;-72
2023/06/11 04:54:31;;;;;;;11.43;6.35;;;;;;;;;;4992282;28;20611;-73
2023/06/11 04:56:56;;;;;;;9.60;5.72;;;;;;;;;;4991373;28;20030;-73
2023/06/11 04:59:21;;;;;;;10.37;5.73;;;;;;;;;;4985116;28;20382;-72
2023/06/11 05:01:48;;;;;;;9.00;5.60;;;;;;;;;;4978157;28;20094;-73
2023/06/11 05:04:16;;;;;;;8.15;5.32;;;;;;;;;;4989807;28;20254;-72
2023/06/11 05:06:45;;;;;;;10.82;6.53;;;;;;;;;;4989298;28;20145;-73
2023/06/11 05:09:12;;;;;;;12.88;5.93;;;;;;;;;;4991445;28;20018;-72
2023/06/11 05:11:37;;;;;;;9.20;5.65;;;;;;;;;;4984855;28;20026;-73
2023/06/11 05:14:02;;;;;;;9.33;5.87;;;;;;;;;;4986571;28;20041;-72
2023/06/11 05:16:28;;;;;;;10.67;6.37;;;;;;;;;;4973472;28;20695;-72
2023/06/11 05:18:53;;;;;;;7.70;5.88;;;;;;;;;;4991182;28;20018;-72
2023/06/11 05:21:19;;;;;;;9.80;6.13;;;;;;;;;;4989297;28;20035;-73
2023/06/11 05:23:44;;;;;;;11.80;6.00;;;;;;;;;;4991618;28;20087;-73
2023/06/11 05:26:12;;;;;;;7.90;5.60;;;;;;;;;;4989367;28;20053;-72
2023/06/11 05:28:37;;;;;;;10.63;5.70;;;;;;;;;;4976716;28;20113;-72
2023/06/11 05:31:03;;;;;;;9.65;5.35;;;;;;;;;;4987502;28;20502;-72
2023/06/11 05:33:30;;;;;;;10.70;5.57;;;;;;;;;;4988579;28;20845;-72
2023/06/11 05:35:55;;;;;;;8.50;5.25;;;;;;;;;;4992014;28;20022;-73
2023/06/11 05:38:21;;;;;;;9.60;5.30;;;;;;;;;;4990619;28;20026;-71
2023/06/11 05:40:46;;;;;;;11.35;5.93;;;;;;;;;;4986817;28;20106;-72
2023/06/11 05:43:11;;;;;;;10.03;5.40;;;;;;;;;;4987015;28;20022;-72
2023/06/11 05:45:36;;;;;;;7.60;5.30;;;;;;;;;;4980578;28;20019;-72
2023/06/11 05:48:03;;;;;;;8.40;6.00;;;;;;;;;;4978565;28;20294;-72
2023/06/11 05:50:28;;;;;;;8.50;6.07;;;;;;;;;;4974938;28;20398;-72
2023/06/11 05:52:54;;;;;;;7.87;4.83;;;;;;;;;;4986258;28;20026;-72
2023/06/11 05:55:19;;;;;;;6.90;3.92;;;;;;;;;;4986306;28;20285;-72
2023/06/11 05:57:44;;;;;;;11.20;5.47;;;;;;;;;;4977163;28;20035;-72
2023/06/11 06:00:12;;;;;;;5.17;3.50;;;;;;;;;;4972926;28;20324;-72
2023/06/11 06:02:37;;;;;;;9.00;5.60;;;;;;;;;;4991716;28;20354;-72
2023/06/11 06:05:03;;;;;;;8.00;5.40;;;;;;;;;;4989457;28;20082;-72
2023/06/11 06:07:28;;;;;;;7.47;5.53;;;;;;;;;;4974519;28;20015;-72
2023/06/11 06:09:53;;;;;;;12.25;5.75;;;;;;;;;;4988614;28;20030;-72
2023/06/11 06:12:18;;;;;;;6.03;3.60;;;;;;;;;;4976639;28;20045;-72
2023/06/11 06:14:43;;;;;;;7.40;4.03;;;;;;;;;;4988436;28;20085;-72
2023/06/11 06:17:09;;;;;;;8.63;5.40;;;;;;;;;;4985049;28;20034;-72
2023/06/11 06:19:34;;;;;;;8.40;4.70;;;;;;;;;;4986903;28;20112;-72
2023/06/11 06:21:59;;;;;;;4.20;2.95;;;;;;;;;;4991114;28;20021;-72
2023/06/11 06:24:24;;;;;;;12.33;5.50;;;;;;;;;;4988457;28;20109;-72
2023/06/11 06:26:56;;;;;;;6.60;4.10;;;;;;;;;;4990100;28;20014;-73
2023/06/11 06:29:27;;;;;;;8.27;4.70;;;;;;;;;;4985464;28;20272;-73
2023/06/11 06:31:53;;;;;;;10.13;5.80;;;;;;;;;;4992400;28;20021;-73
2023/06/11 06:34:18;;;;;;;9.07;5.50;;;;;;;;;;4975665;28;20018;-73
2023/06/11 06:36:43;;;;;;;8.30;5.63;;;;;;;;;;4982074;28;20470;-73
2023/06/11 06:39:09;;;;;;;8.87;5.93;;;;;;;;;;4990859;28;20041;-73
2023/06/11 06:41:34;;;;;;;8.80;5.05;;;;;;;;;;4989568;28;20265;-73
2023/06/11 06:43:59;;;;;;;6.17;3.73;;;;;;;;;;4991373;28;20014;-72
2023/06/11 06:46:25;;;;;;;7.87;5.23;;;;;;;;;;4992511;28;20261;-72
2023/06/11 06:48:51;;;;;;;7.10;4.27;;;;;;;;;;4993428;28;20258;-72
2023/06/11 06:51:17;;;;;;;9.18;4.55;;;;;;;;;;4990906;28;20330;-72
2023/06/11 06:53:43;;;;;;;11.13;5.00;;;;;;;;;;4974210;28;20019;-72
2023/06/11 06:56:08;;;;;;;7.10;3.73;;;;;;;;;;4987347;28;20065;-72
2023/06/11 06:58:33;;;;;;;5.43;3.70;;;;;;;;;;4986766;28;20304;-73
2023/06/11 07:00:58;;;;;;;11.23;4.60;;;;;;;;;;4982228;28;20038;-72
2023/06/11 07:03:23;;;;;;;7.27;5.17;;;;;;;;;;4979561;28;20037;-72
2023/06/11 07:05:49;;;;;;;11.52;5.63;;;;;;;;;;4992682;28;20833;-72
2023/06/11 07:08:14;;;;;;;11.27;5.53;;;;;;;;;;4990122;28;20385;-72
2023/06/11 07:10:42;;;;;;;7.40;5.00;;;;;;;;;;4978230;28;20337;-72
2023/06/11 07:13:08;;;;;;;5.88;3.65;;;;;;;;;;4987003;28;20352;-72
2023/06/11 07:15:33;;;;;;;7.55;4.85;;;;;;;;;;4982889;28;20030;-72
2023/06/11 07:17:58;;;;;;;8.83;4.53;;;;;;;;;;4988945;28;20358;-72
2023/06/11 07:20:23;;;;;;;7.20;4.20;;;;;;;;;;4993086;28;20073;-72
2023/06/11 07:22:48;;;;;;;3.00;1.80;;;;;;;;;;4993145;28;20485;-72
2023/06/11 07:25:14;;;;;;;6.47;4.47;;;;;;;;;;4983752;28;20026;-73
2023/06/11 07:27:39;;;;;;;7.93;5.00;;;;;;;;;;4977956;28;20417;-73
2023/06/11 07:30:05;;;;;;;11.68;3.53;;;;;;;;;;4977018;28;20062;-73
2023/06/11 07:32:30;;;;;;;7.97;4.53;;;;;;;;;;4992365;28;20029;-73
2023/06/11 07:34:55;;;;;;;7.10;4.93;;;;;;;;;;4983092;28;20019;-73
2023/06/11 07:37:20;;;;;;;5.63;3.70;;;;;;;;;;4986028;28;20097;-72
2023/06/11 07:39:45;;;;;;;8.57;5.10;;;;;;;;;;4983895;28;20031;-72
2023/06/11 07:42:11;;;;;;;5.70;3.43;;;;;;;;;;4986965;28;20018;-72
2023/06/11 07:44:36;;;;;;;9.20;4.60;;;;;;;;;;4985464;28;20109;-73
2023/06/11 07:47:01;;;;;;;9.20;5.27;;;;;;;;;;4984020;28;20021;-73
2023/06/11 07:49:26;;;;;;;7.20;4.07;;;;;;;;;;4990518;28;20070;-73
2023/06/11 07:51:51;;;;;;;4.73;3.80;;;;;;;;;;4985266;28;20305;-73
2023/06/11 07:54:17;;;;;;;7.38;4.75;;;;;;;;;;5004612;28;20027;-73
2023/06/11 07:56:42;;;;;;;7.57;3.88;;;;;;;;;;4996472;28;20053;-73
2023/06/11 07:59:07;;;;;;;5.50;4.47;;;;;;;;;;5000715;28;20358;-73
2023/06/11 08:01:32;;;;;;;2.97;1.90;;;;;;;;;;4996506;28;20053;-73
2023/06/11 08:03:58;;;;;;;9.47;3.17;;;;;;;;;;4999479;28;20280;-73
2023/06/11 08:06:23;;;;;;;6.47;3.90;;;;;;;;;;4998307;28;20102;-73
2023/06/11 08:08:48;;;;;;;3.47;2.63;;;;;;;;;;4992245;28;20080;-73
2023/06/11 08:11:14;;;;;;;8.37;4.53;;;;;;;;;;4992137;28;20031;-73
2023/06/11 08:13:40;;;;;;;8.00;4.00;;;;;;;;;;5008373;28;20052;-73
2023/06/11 08:16:05;;;;;;;4.95;3.47;;;;;;;;;;4986758;28;20025;-73
2023/06/11 08:18:31;;;;;;;5.68;4.55;;;;;;;;;;4992033;28;20022;-73
2023/06/11 08:20:56;;;;;;;4.87;3.87;;;;;;;;;;4987822;28;20092;-73
2023/06/11 08:23:21;;;;;;;6.70;2.97;;;;;;;;;;4978848;28;20023;-73
2023/06/11 08:25:46;;;;;;;3.57;2.97;;;;;;;;;;4988673;28;20018;-72
2023/06/11 08:28:11;;;;;;;4.27;3.23;;;;;;;;;;5003526;28;20463;-72
2023/06/11 08:30:36;;;;;;;5.23;3.97;;;;;;;;;;4977482;28;20022;-73
2023/06/11 08:33:02;;;;;;;5.33;3.63;;;;;;;;;;4998618;28;20505;-73
2023/06/11 08:35:27;;;;;;;3.60;2.80;;;;;;;;;;4994139;28;20029;-72
2023/06/11 08:37:52;;;;;;;6.17;2.80;;;;;;;;;;4992522;28;20022;-73
2023/06/11 08:40:18;;;;;;;4.60;2.73;;;;;;;;;;4997862;28;20041;-73
2023/06/11 08:42:44;;;;;;;8.05;4.13;;;;;;;;;;4984683;28;20022;-72
2023/06/11 08:45:09;;;;;;;7.88;3.60;;;;;;;;;;4991275;28;20359;-73
2023/06/11 08:47:38;;;;;;;4.47;3.45;;;;;;;;;;4985151;28;20021;-73
2023/06/11 08:50:03;;;;;;;5.63;4.00;;;;;;;;;;4988810;28;20030;-72
2023/06/11 08:52:31;;;;;;;6.43;4.57;;;;;;;;;;4990535;28;20030;-72
2023/06/11 08:54:56;;;;;;;6.30;3.67;;;;;;;;;;4971525;28;20026;-72
2023/06/11 08:57:21;;;;;;;6.93;4.82;;;;;;;;;;4993530;28;20084;-72
2023/06/11 08:59:46;;;;;;;5.65;3.42;;;;;;;;;;4994767;28;20054;-72
2023/06/11 09:02:12;;;;;;;6.27;4.30;;;;;;;;;;4995150;28;20453;-72
2023/06/11 09:04:37;;;;;;;8.23;3.50;;;;;;;;;;4985222;28;20027;-72
2023/06/11 09:07:03;;;;;;;6.40;4.28;;;;;;;;;;4978888;28;20057;-72
2023/06/11 09:09:28;;;;;;;3.88;2.83;;;;;;;;;;4993900;28;20050;-72
2023/06/11 09:11:53;;;;;;;11.47;3.70;;;;;;;;;;4991768;28;20096;-72
2023/06/11 09:14:19;;;;;;;7.55;2.72;;;;;;;;;;4990041;28;20028;-72
2023/06/11 09:16:45;;;;;;;8.63;4.10;;;;;;;;;;4965541;28;20020;-72
2023/06/11 09:19:11;;;;;;;2.25;2.05;;;;;;;;;;4987772;28;20122;-73
2023/06/11 09:21:37;;;;;;;6.80;4.60;;;;;;;;;;4990085;28;20018;-72
2023/06/11 09:24:09;;;;;;;9.57;4.70;;;;;;;;;;4991222;28;20031;-72
2023/06/11 09:26:34;;;;;;;6.63;3.83;;;;;;;;;;4995055;28;20021;-72
2023/06/11 09:29:00;;;;;;;3.80;2.77;;;;;;;;;;5005256;28;20022;-72
2023/06/11 09:31:26;;;;;;;5.00;3.83;;;;;;;;;;4982650;28;20062;-72
2023/06/11 09:33:52;;;;;;;7.70;4.32;;;;;;;;;;4989923;28;20029;-71
2023/06/11 09:36:18;;;;;;;4.07;3.53;;;;;;;;;;5001704;28;20026;-71
2023/06/11 09:38:43;;;;;;;4.70;3.33;;;;;;;;;;4982276;28;20057;-72
2023/06/11 09:41:08;;;;;;;5.18;3.63;;;;;;;;;;4971299;28;20035;-72
2023/06/11 09:43:34;;;;;;;4.23;2.97;;;;;;;;;;4971434;28;20102;-72
2023/06/11 09:46:01;;;;;;;7.10;4.28;;;;;;;;;;4987663;28;20340;-72
2023/06/11 09:48:27;;;;;;;11.13;4.05;;;;;;;;;;4991084;28;20477;-71
2023/06/11 09:50:52;;;;;;;4.25;2.58;;;;;;;;;;5004550;28;20100;-72
2023/06/11 09:53:19;;;;;;;4.38;2.30;;;;;;;;;;4990872;28;20028;-72
2023/06/11 09:55:45;;;;;;;3.85;2.70;;;;;;;;;;4993859;28;20022;-72
2023/06/11 09:58:10;;;;;;;4.38;2.75;;;;;;;;;;4995525;28;20073;-72
2023/06/11 10:00:36;;;;;;;5.15;2.70;;;;;;;;;;4992570;28;20421;-72
2023/06/11 10:03:01;;;;;;;7.53;4.03;;;;;;;;;;4990447;28;20119;-72
2023/06/11 10:05:27;;;;;;;2.60;1.58;;;;;;;;;;4965512;28;20010;-72
2023/06/11 10:08:00;;;;;;;4.85;3.70;;;;;;;;;;4990689;28;20026;-73
2023/06/11 10:10:26;;;;;;;6.18;2.78;;;;;;;;;;4990750;28;20022;-73
2023/06/11 10:12:52;;;;;;;8.30;2.97;;;;;;;;;;4994446;28;20022;-73
2023/06/11 10:15:18;;;;;;;4.88;3.25;;;;;;;;;;4996804;28;20092;-73
2023/06/11 10:17:47;;;;;;;3.28;2.70;;;;;;;;;;4995145;28;20027;-73
2023/06/11 10:20:16;;;;;;;5.63;3.47;;;;;;;;;;4970930;28;20023;-73
2023/06/11 10:22:42;;;;;;;9.73;2.63;;;;;;;;;;4981510;28;20018;-73
2023/06/11 10:25:07;;;;;;;7.00;3.60;;;;;;;;;;4999808;28;20431;-73
2023/06/11 10:27:36;;;;;;;5.47;3.25;;;;;;;;;;4983490;28;20023;-72
2023/06/11 10:30:02;;;;;;;6.15;2.78;;;;;;;;;;4999652;28;20022;-72
2023/06/11 10:32:27;;;;;;;7.57;3.58;;;;;;;;;;4983350;28;20482;-72
2023/06/11 10:34:54;;;;;;;8.47;4.50;;;;;;;;;;4971171;28;20019;-72
2023/06/11 10:37:40;;;;;;;8.05;3.13;;;;;;;;;;4988412;28;20030;-72
2023/06/11 10:40:06;;;;;;;6.90;3.08;;;;;;;;;;4983836;28;20038;-71
2023/06/11 10:42:35;;;;;;;6.22;3.47;;;;;;;;;;4970796;28;20015;-72
2023/06/11 10:45:05;;;;;;;10.80;3.25;;;;;;;;;;4983625;28;20053;-72
2023/06/11 10:47:40;;;;;;;9.77;3.90;;;;;;;;;;4984660;28;20113;-72
2023/06/11 10:50:06;;;;;;;8.90;3.72;;;;;;;;;;4992049;28;20080;-72
2023/06/11 10:52:31;;;;;;;8.65;3.70;;;;;;;;;;4998339;28;20018;-72
2023/06/11 10:54:57;;;;;;;11.80;3.87;;;;;;;;;;4994156;28;20037;-72
2023/06/11 10:57:23;;;;;;;6.03;3.78;;;;;;;;;;4974084;28;20019;-72
2023/06/11 10:59:49;;;;;;;8.50;3.00;;;;;;;;;;4974009;28;20026;-71
2023/06/11 11:02:15;;;;;;;5.45;2.80;;;;;;;;;;4995206;28;20018;-72
2023/06/11 11:04:53;;;;;;;5.03;3.50;;;;;;;;;;4997021;28;20089;-72
2023/06/11 11:07:18;;;;;;;4.88;2.63;;;;;;;;;;4990623;28;20490;-72
2023/06/11 11:09:44;;;;;;;8.38;3.88;;;;;;;;;;4981622;28;20034;-72
2023/06/11 11:12:11;;;;;;;12.10;4.63;;;;;;;;;;4979560;28;20026;-72
2023/06/11 11:14:36;;;;;;;7.20;4.03;;;;;;;;;;4992659;28;20043;-72
2023/06/11 11:17:02;;;;;;;4.20;2.40;;;;;;;;;;4993389;28;20046;-72
2023/06/11 11:19:27;;;;;;;8.18;3.67;;;;;;;;;;4985475;28;20542;-72
2023/06/11 11:21:52;;;;;;;2.50;1.83;;;;;;;;;;4985744;28;20023;-72
2023/06/11 11:24:18;;;;;;;7.40;4.45;;;;;;;;;;4984526;28;20277;-72
2023/06/11 11:26:45;;;;;;;8.48;4.55;;;;;;;;;;4989297;28;20022;-72
2023/06/11 11:29:10;;;;;;;9.07;3.90;;;;;;;;;;4988428;28;20161;-72
2023/06/11 11:31:36;;;;;;;8.43;3.27;;;;;;;;;;4994646;28;20104;-72
2023/06/11 11:34:01;;;;;;;8.55;5.55;;;;;;;;;;4984974;28;21655;-72
2023/06/11 11:36:26;;;;;;;4.93;3.03;;;;;;;;;;4983938;28;20022;-72
2023/06/11 11:38:52;;;;;;;7.33;2.83;;;;;;;;;;4988716;28;20026;-72
2023/06/11 11:41:20;;;;;;;5.80;3.47;;;;;;;;;;4992019;28;20025;-72
2023/06/11 11:43:48;;;;;;;4.30;2.93;;;;;;;;;;4983052;28;20022;-72
2023/06/11 11:46:14;;;;;;;7.00;3.83;;;;;;;;;;4979614;28;20029;-72
2023/06/11 11:48:40;;;;;;;6.80;4.53;;;;;;;;;;4982758;28;20070;-72
2023/06/11 11:51:08;;;;;;;7.40;4.07;;;;;;;;;;4994956;28;20026;-72
2023/06/11 11:53:34;;;;;;;6.00;3.83;;;;;;;;;;4982378;28;20027;-72
2023/06/11 11:55:59;;;;;;;9.00;4.22;;;;;;;;;;4983376;28;20022;-72
2023/06/11 11:58:24;;;;;;;11.60;4.53;;;;;;;;;;4994785;28;20034;-72
2023/06/11 12:00:54;;;;;;;4.85;3.70;;;;;;;;;;4991116;28;20283;-72
2023/06/11 12:03:20;;;;;;;5.28;3.28;;;;;;;;;;4992035;28;20061;-72
2023/06/11 12:05:59;;;;;;;4.68;3.25;;;;;;;;;;4995157;28;20018;-72
2023/06/11 12:08:25;;;;;;;9.38;3.13;;;;;;;;;;4981742;28;20026;-72
2023/06/11 12:10:50;;;;;;;8.70;4.40;;;;;;;;;;4988551;28;20027;-73
2023/06/11 12:13:16;;;;;;;4.60;3.33;;;;;;;;;;4990915;28;20026;-72
2023/06/11 12:15:41;;;;;;;10.33;4.33;;;;;;;;;;4983232;28;20082;-72
2023/06/11 12:18:06;;;;;;;6.03;3.87;;;;;;;;;;4978465;28;20339;-72
2023/06/11 12:20:31;;;;;;;4.67;2.93;;;;;;;;;;4972499;28;20023;-72
2023/06/11 12:22:57;;;;;;;4.63;2.72;;;;;;;;;;4987853;28;20293;-72
2023/06/11 12:25:22;;;;;;;6.00;4.40;;;;;;;;;;4994342;28;20171;-72
2023/06/11 12:27:47;;;;;;;5.63;4.23;;;;;;;;;;4988938;28;20018;-72
2023/06/11 12:30:12;;;;;;;6.68;4.57;;;;;;;;;;4989590;28;20026;-72
2023/06/11 12:32:38;;;;;;;7.85;3.42;;;;;;;;;;4990911;28;20101;-72
2023/06/11 12:35:03;;;;;;;7.13;4.35;;;;;;;;;;4988931;28;20026;-72
2023/06/11 12:37:29;;;;;;;4.28;3.47;;;;;;;;;;4989002;28;20481;-72
2023/06/11 12:39:54;;;;;;;6.57;4.57;;;;;;;;;;5000298;28;20024;-72
2023/06/11 12:42:20;;;;;;;6.78;4.53;;;;;;;;;;4973526;28;20030;-72
2023/06/11 12:44:46;;;;;;;4.68;2.92;;;;;;;;;;4972229;28;20030;-72
2023/06/11 12:47:12;;;;;;;5.25;3.33;;;;;;;;;;4972220;28;20019;-72
2023/06/11 12:49:37;;;;;;;9.85;4.07;;;;;;;;;;4985422;28;20091;-72
2023/06/11 12:52:03;;;;;;;4.53;2.35;;;;;;;;;;4989059;28;20065;-72
2023/06/11 12:54:28;;;;;;;5.85;3.97;;;;;;;;;;4981887;28;20030;-72
2023/06/11 12:56:53;;;;;;;10.10;4.57;;;;;;;;;;4986788;28;20501;-73
2023/06/11 12:59:20;;;;;;;8.05;4.85;;;;;;;;;;4990489;28;20031;-72
2023/06/11 13:01:45;;;;;;;7.35;4.18;;;;;;;;;;4997489;28;20472;-72
2023/06/11 13:04:11;;;;;;;7.85;4.65;;;;;;;;;;4975859;28;20089;-72
2023/06/11 13:06:36;;;;;;;5.15;3.33;;;;;;;;;;4972041;28;20545;-72
2023/06/11 13:09:01;;;;;;;7.13;4.07;;;;;;;;;;4980632;28;20018;-73
2023/06/11 13:11:27;;;;;;;5.75;3.60;;;;;;;;;;4981186;28;20262;-73
2023/06/11 13:13:52;;;;;;;7.25;4.65;;;;;;;;;;4980364;28;20025;-73
2023/06/11 13:16:17;;;;;;;6.75;4.05;;;;;;;;;;4987756;28;20079;-73
2023/06/11 13:18:43;;;;;;;10.33;4.13;;;;;;;;;;4973149;28;20041;-73
2023/06/11 13:21:08;;;;;;;9.60;5.10;;;;;;;;;;4986730;28;20030;-73
2023/06/11 13:23:33;;;;;;;6.15;4.30;;;;;;;;;;4980956;28;20324;-73
2023/06/11 13:25:59;;;;;;;6.07;4.20;;;;;;;;;;4977841;28;20034;-73
2023/06/11 13:28:26;;;;;;;6.47;3.47;;;;;;;;;;4985543;28;20269;-73
2023/06/11 13:30:52;;;;;;;7.40;3.97;;;;;;;;;;4972529;28;20019;-73
2023/06/11 13:33:17;;;;;;;8.70;4.70;;;;;;;;;;4986438;28;20014;-73
2023/06/11 13:35:42;;;;;;;6.60;3.77;;;;;;;;;;4986305;28;20396;-73
2023/06/11 13:38:08;;;;;;;8.90;5.47;;;;;;;;;;4982581;28;20806;-73
2023/06/11 13:40:33;;;;;;;8.15;4.50;;;;;;;;;;4976911;28;20023;-73
2023/06/11 13:42:58;;;;;;;6.03;4.60;;;;;;;;;;4986622;28;20383;-73
2023/06/11 13:45:23;;;;;;;7.77;4.40;;;;;;;;;;4983991;28;20030;-73
2023/06/11 13:47:49;;;;;;;6.63;4.83;;;;;;;;;;4985924;28;20026;-73
2023/06/11 13:50:14;;;;;;;7.82;4.68;;;;;;;;;;4988784;28;20481;-73
2023/06/11 13:52:40;;;;;;;6.38;4.68;;;;;;;;;;4978569;28;20046;-73
2023/06/11 13:55:05;;;;;;;7.03;5.43;;;;;;;;;;4981408;28;20101;-73
2023/06/11 13:57:31;;;;;;;10.93;4.90;;;;;;;;;;4982067;28;20033;-73
2023/06/11 13:59:56;;;;;;;9.25;4.93;;;;;;;;;;4990011;28;20046;-73
2023/06/11 14:02:21;;;;;;;8.50;4.43;;;;;;;;;;4988476;28;20027;-73
2023/06/11 14:04:47;;;;;;;8.02;5.40;;;;;;;;;;4967817;28;20019;-73
2023/06/11 14:07:12;;;;;;;10.43;5.20;;;;;;;;;;4979175;28;20053;-73
2023/06/11 14:09:37;;;;;;;6.93;4.97;;;;;;;;;;4983397;28;20481;-73
2023/06/11 14:12:03;;;;;;;10.03;5.03;;;;;;;;;;4982994;28;20587;-73
2023/06/11 14:14:31;;;;;;;12.60;4.68;;;;;;;;;;4979277;28;20505;-73
2023/06/11 14:16:58;;;;;;;6.60;4.70;;;;;;;;;;4990898;28;20037;-73
2023/06/11 14:19:23;;;;;;;7.07;5.47;;;;;;;;;;4978784;28;20078;-73
2023/06/11 14:21:48;;;;;;;5.67;4.40;;;;;;;;;;4973900;28;20023;-73
2023/06/11 14:24:14;;;;;;;6.30;4.70;;;;;;;;;;4983568;28;20050;-73
2023/06/11 14:26:39;;;;;;;7.60;5.43;;;;;;;;;;4988825;28;20484;-73
2023/06/11 14:29:05;;;;;;;6.67;4.80;;;;;;;;;;4988823;28;20034;-73
2023/06/11 14:31:30;;;;;;;8.52;5.43;;;;;;;;;;4991121;28;20018;-73
2023/06/11 14:33:56;;;;;;;9.57;4.73;;;;;;;;;;4992822;28;20369;-73